sensor_id;sensor_type;location;lat;lon;timestamp;P1;durP1;ratioP1;P2;durP2;ratioP2
3995;SDS011;2012;49.794;9.722;2022-10-16T00:01:12;4.43;;;0.90;;
3995;SDS011;2012;49.794;9.722;2022-10-16T00:03:41;1.73;;;0.97;;
3995;SDS011;2012;49.794;9.722;2022-10-16T00:06:09;1.60;;;1.10;;
3995;SDS011;2012;49.794;9.722;2022-10-16T00:08:36;1.10;;;0.87;;
3995;SDS011;2012;49.794;9.722;2022-10-16T00:11:08;4.20;;;1.20;;
3995;SDS011;2012;49.794;9.722;2022-10-16T00:13:37;1.40;;;1.00;;
3995;SDS011;2012;49.794;9.722;2022-10-16T00:16:05;3.23;;;0.97;;
3995;SDS011;2012;49.794;9.722;2022-10-16T00:18:33;1.10;;;1.00;;
3995;SDS011;2012;49.794;9.722;2022-10-16T00:21:07;2.60;;;1.37;;
3995;SDS011;2012;49.794;9.722;2022-10-16T00:23:36;2.60;;;0.97;;
3995;SDS011;2012;49.794;9.722;2022-10-16T00:26:04;2.80;;;0.90;;
3995;SDS011;2012;49.794;9.722;2022-10-16T00:28:33;2.93;;;1.10;;
3995;SDS011;2012;49.794;9.722;2022-10-16T00:31:04;1.47;;;1.30;;
3995;SDS011;2012;49.794;9.722;2022-10-16T00:33:33;1.20;;;1.10;;
3995;SDS011;2012;49.794;9.722;2022-10-16T00:36:01;1.07;;;0.97;;
3995;SDS011;2012;49.794;9.722;2022-10-16T00:38:29;2.30;;;1.13;;
3995;SDS011;2012;49.794;9.722;2022-10-16T00:40:56;1.33;;;1.23;;
3995;SDS011;2012;49.794;9.722;2022-10-16T00:43:33;1.17;;;1.07;;
3995;SDS011;2012;49.794;9.722;2022-10-16T00:48:50;1.83;;;1.07;;
3995;SDS011;2012;49.794;9.722;2022-10-16T00:51:23;2.10;;;0.87;;
3995;SDS011;2012;49.794;9.722;2022-10-16T00:53:55;1.53;;;1.10;;
3995;SDS011;2012;49.794;9.722;2022-10-16T00:56:22;1.17;;;0.90;;
3995;SDS011;2012;49.794;9.722;2022-10-16T00:58:49;1.20;;;1.10;;
3995;SDS011;2012;49.794;9.722;2022-10-16T01:01:16;2.20;;;0.80;;
3995;SDS011;2012;49.794;9.722;2022-10-16T01:03:43;3.63;;;1.00;;
3995;SDS011;2012;49.794;9.722;2022-10-16T01:11:12;1.17;;;0.70;;
3995;SDS011;2012;49.794;9.722;2022-10-16T01:13:50;1.00;;;0.77;;
3995;SDS011;2012;49.794;9.722;2022-10-16T01:16:34;1.00;;;0.70;;
3995;SDS011;2012;49.794;9.722;2022-10-16T01:19:12;1.57;;;0.70;;
3995;SDS011;2012;49.794;9.722;2022-10-16T01:21:46;1.60;;;0.70;;
3995;SDS011;2012;49.794;9.722;2022-10-16T01:29:52;2.43;;;0.80;;
3995;SDS011;2012;49.794;9.722;2022-10-16T01:32:33;0.80;;;0.70;;
3995;SDS011;2012;49.794;9.722;2022-10-16T01:35:20;1.60;;;0.70;;
3995;SDS011;2012;49.794;9.722;2022-10-16T01:37:59;2.87;;;0.80;;
3995;SDS011;2012;49.794;9.722;2022-10-16T01:40:46;2.50;;;0.63;;
3995;SDS011;2012;49.794;9.722;2022-10-16T01:43:18;10.70;;;0.70;;
3995;SDS011;2012;49.794;9.722;2022-10-16T01:45:51;0.70;;;0.60;;
3995;SDS011;2012;49.794;9.722;2022-10-16T01:48:19;2.50;;;0.80;;
3995;SDS011;2012;49.794;9.722;2022-10-16T01:50:50;0.80;;;0.70;;
3995;SDS011;2012;49.794;9.722;2022-10-16T01:53:23;1.13;;;0.70;;
3995;SDS011;2012;49.794;9.722;2022-10-16T01:55:52;0.60;;;0.60;;
3995;SDS011;2012;49.794;9.722;2022-10-16T01:58:21;1.00;;;0.70;;
3995;SDS011;2012;49.794;9.722;2022-10-16T02:00:51;1.73;;;0.57;;
3995;SDS011;2012;49.794;9.722;2022-10-16T02:03:20;1.30;;;0.60;;
3995;SDS011;2012;49.794;9.722;2022-10-16T02:05:49;0.73;;;0.60;;
3995;SDS011;2012;49.794;9.722;2022-10-16T02:08:19;0.90;;;0.70;;
3995;SDS011;2012;49.794;9.722;2022-10-16T02:10:48;0.90;;;0.60;;
3995;SDS011;2012;49.794;9.722;2022-10-16T02:15:57;1.70;;;0.80;;
3995;SDS011;2012;49.794;9.722;2022-10-16T02:18:25;2.30;;;0.80;;
3995;SDS011;2012;49.794;9.722;2022-10-16T02:20:56;0.80;;;0.70;;
3995;SDS011;2012;49.794;9.722;2022-10-16T02:26:26;0.70;;;0.70;;
3995;SDS011;2012;49.794;9.722;2022-10-16T02:28:59;0.70;;;0.67;;
3995;SDS011;2012;49.794;9.722;2022-10-16T02:31:31;2.40;;;0.60;;
3995;SDS011;2012;49.794;9.722;2022-10-16T02:34:01;1.83;;;0.77;;
3995;SDS011;2012;49.794;9.722;2022-10-16T02:36:32;0.73;;;0.73;;
3995;SDS011;2012;49.794;9.722;2022-10-16T02:38:59;3.70;;;0.80;;
3995;SDS011;2012;49.794;9.722;2022-10-16T02:41:27;0.70;;;0.70;;
3995;SDS011;2012;49.794;9.722;2022-10-16T02:43:54;2.83;;;0.60;;
3995;SDS011;2012;49.794;9.722;2022-10-16T02:46:21;19.63;;;6.43;;
3995;SDS011;2012;49.794;9.722;2022-10-16T02:48:48;6.13;;;2.90;;
3995;SDS011;2012;49.794;9.722;2022-10-16T02:51:14;3.60;;;2.27;;
3995;SDS011;2012;49.794;9.722;2022-10-16T02:53:41;2.23;;;2.03;;
3995;SDS011;2012;49.794;9.722;2022-10-16T02:56:08;2.17;;;1.90;;
3995;SDS011;2012;49.794;9.722;2022-10-16T02:58:34;1.67;;;1.57;;
3995;SDS011;2012;49.794;9.722;2022-10-16T03:01:01;1.70;;;1.40;;
3995;SDS011;2012;49.794;9.722;2022-10-16T03:03:28;4.63;;;1.60;;
3995;SDS011;2012;49.794;9.722;2022-10-16T03:05:55;2.53;;;1.40;;
3995;SDS011;2012;49.794;9.722;2022-10-16T03:08:22;2.00;;;1.10;;
3995;SDS011;2012;49.794;9.722;2022-10-16T03:10:51;1.20;;;1.10;;
3995;SDS011;2012;49.794;9.722;2022-10-16T03:13:18;3.17;;;1.20;;
3995;SDS011;2012;49.794;9.722;2022-10-16T03:15:46;4.40;;;2.40;;
3995;SDS011;2012;49.794;9.722;2022-10-16T03:18:13;11.83;;;1.07;;
3995;SDS011;2012;49.794;9.722;2022-10-16T03:20:40;9.83;;;1.30;;
3995;SDS011;2012;49.794;9.722;2022-10-16T03:23:08;4.90;;;1.10;;
3995;SDS011;2012;49.794;9.722;2022-10-16T03:25:35;3.50;;;1.27;;
3995;SDS011;2012;49.794;9.722;2022-10-16T03:28:02;1.20;;;1.10;;
3995;SDS011;2012;49.794;9.722;2022-10-16T03:30:29;1.13;;;1.03;;
3995;SDS011;2012;49.794;9.722;2022-10-16T03:32:56;2.53;;;1.30;;
3995;SDS011;2012;49.794;9.722;2022-10-16T03:35:23;2.60;;;1.13;;
3995;SDS011;2012;49.794;9.722;2022-10-16T03:37:50;2.23;;;1.30;;
3995;SDS011;2012;49.794;9.722;2022-10-16T03:40:17;3.53;;;1.27;;
3995;SDS011;2012;49.794;9.722;2022-10-16T03:42:44;2.50;;;1.30;;
3995;SDS011;2012;49.794;9.722;2022-10-16T03:45:11;1.10;;;1.00;;
3995;SDS011;2012;49.794;9.722;2022-10-16T03:47:37;1.10;;;1.00;;
3995;SDS011;2012;49.794;9.722;2022-10-16T03:50:04;7.97;;;1.97;;
3995;SDS011;2012;49.794;9.722;2022-10-16T03:52:32;3.23;;;1.80;;
3995;SDS011;2012;49.794;9.722;2022-10-16T03:54:59;2.90;;;2.07;;
3995;SDS011;2012;49.794;9.722;2022-10-16T03:57:26;2.33;;;2.03;;
3995;SDS011;2012;49.794;9.722;2022-10-16T03:59:53;4.60;;;1.63;;
3995;SDS011;2012;49.794;9.722;2022-10-16T04:02:20;2.90;;;1.30;;
3995;SDS011;2012;49.794;9.722;2022-10-16T04:04:46;5.30;;;1.70;;
3995;SDS011;2012;49.794;9.722;2022-10-16T04:07:13;1.53;;;1.43;;
3995;SDS011;2012;49.794;9.722;2022-10-16T04:09:40;3.33;;;1.47;;
3995;SDS011;2012;49.794;9.722;2022-10-16T04:12:08;2.07;;;1.67;;
3995;SDS011;2012;49.794;9.722;2022-10-16T04:14:34;5.60;;;1.60;;
3995;SDS011;2012;49.794;9.722;2022-10-16T04:17:01;2.70;;;1.77;;
3995;SDS011;2012;49.794;9.722;2022-10-16T04:19:28;1.60;;;1.47;;
3995;SDS011;2012;49.794;9.722;2022-10-16T04:21:55;4.07;;;1.90;;
3995;SDS011;2012;49.794;9.722;2022-10-16T04:24:21;3.00;;;1.50;;
3995;SDS011;2012;49.794;9.722;2022-10-16T04:26:48;1.97;;;1.80;;
3995;SDS011;2012;49.794;9.722;2022-10-16T04:29:15;2.07;;;1.80;;
3995;SDS011;2012;49.794;9.722;2022-10-16T04:31:42;2.70;;;2.23;;
3995;SDS011;2012;49.794;9.722;2022-10-16T04:34:08;2.00;;;1.10;;
3995;SDS011;2012;49.794;9.722;2022-10-16T04:36:35;2.80;;;1.00;;
3995;SDS011;2012;49.794;9.722;2022-10-16T04:39:02;5.50;;;1.40;;
3995;SDS011;2012;49.794;9.722;2022-10-16T04:41:29;2.93;;;1.20;;
3995;SDS011;2012;49.794;9.722;2022-10-16T04:43:56;5.00;;;1.77;;
3995;SDS011;2012;49.794;9.722;2022-10-16T04:46:22;3.00;;;1.43;;
3995;SDS011;2012;49.794;9.722;2022-10-16T04:48:49;2.77;;;1.90;;
3995;SDS011;2012;49.794;9.722;2022-10-16T04:51:16;7.13;;;1.87;;
3995;SDS011;2012;49.794;9.722;2022-10-16T04:53:42;5.07;;;2.00;;
3995;SDS011;2012;49.794;9.722;2022-10-16T04:56:09;9.17;;;2.73;;
3995;SDS011;2012;49.794;9.722;2022-10-16T04:58:36;3.63;;;1.80;;
3995;SDS011;2012;49.794;9.722;2022-10-16T05:01:03;4.90;;;2.40;;
3995;SDS011;2012;49.794;9.722;2022-10-16T05:03:30;1.40;;;1.30;;
3995;SDS011;2012;49.794;9.722;2022-10-16T05:06:01;4.07;;;1.60;;
3995;SDS011;2012;49.794;9.722;2022-10-16T05:08:30;3.67;;;1.80;;
3995;SDS011;2012;49.794;9.722;2022-10-16T05:10:57;5.03;;;1.80;;
3995;SDS011;2012;49.794;9.722;2022-10-16T05:13:24;2.37;;;1.43;;
3995;SDS011;2012;49.794;9.722;2022-10-16T05:15:51;5.57;;;1.43;;
3995;SDS011;2012;49.794;9.722;2022-10-16T05:18:17;4.40;;;1.30;;
3995;SDS011;2012;49.794;9.722;2022-10-16T05:20:44;11.33;;;2.03;;
3995;SDS011;2012;49.794;9.722;2022-10-16T05:23:11;7.13;;;1.60;;
3995;SDS011;2012;49.794;9.722;2022-10-16T05:25:43;2.10;;;1.77;;
3995;SDS011;2012;49.794;9.722;2022-10-16T05:28:09;5.53;;;1.60;;
3995;SDS011;2012;49.794;9.722;2022-10-16T05:30:37;3.17;;;1.73;;
3995;SDS011;2012;49.794;9.722;2022-10-16T05:33:03;2.80;;;1.63;;
3995;SDS011;2012;49.794;9.722;2022-10-16T05:35:30;9.97;;;1.80;;
3995;SDS011;2012;49.794;9.722;2022-10-16T05:37:57;1.50;;;1.40;;
3995;SDS011;2012;49.794;9.722;2022-10-16T05:40:24;3.43;;;1.30;;
3995;SDS011;2012;49.794;9.722;2022-10-16T05:42:54;4.47;;;1.60;;
3995;SDS011;2012;49.794;9.722;2022-10-16T05:45:21;2.70;;;1.43;;
3995;SDS011;2012;49.794;9.722;2022-10-16T05:47:48;5.00;;;1.40;;
3995;SDS011;2012;49.794;9.722;2022-10-16T05:50:14;3.50;;;1.70;;
3995;SDS011;2012;49.794;9.722;2022-10-16T05:52:41;2.90;;;1.70;;
3995;SDS011;2012;49.794;9.722;2022-10-16T05:55:08;3.97;;;1.30;;
3995;SDS011;2012;49.794;9.722;2022-10-16T05:57:35;2.77;;;1.93;;
3995;SDS011;2012;49.794;9.722;2022-10-16T06:00:02;4.13;;;1.33;;
3995;SDS011;2012;49.794;9.722;2022-10-16T06:02:29;3.00;;;1.50;;
3995;SDS011;2012;49.794;9.722;2022-10-16T06:04:56;8.20;;;1.37;;
3995;SDS011;2012;49.794;9.722;2022-10-16T06:07:23;12.60;;;2.00;;
3995;SDS011;2012;49.794;9.722;2022-10-16T06:09:51;5.80;;;1.40;;
3995;SDS011;2012;49.794;9.722;2022-10-16T06:12:19;4.23;;;1.63;;
3995;SDS011;2012;49.794;9.722;2022-10-16T06:14:46;9.50;;;2.40;;
3995;SDS011;2012;49.794;9.722;2022-10-16T06:17:13;4.07;;;1.83;;
3995;SDS011;2012;49.794;9.722;2022-10-16T06:19:41;2.70;;;1.90;;
3995;SDS011;2012;49.794;9.722;2022-10-16T06:22:07;3.43;;;1.83;;
3995;SDS011;2012;49.794;9.722;2022-10-16T06:24:34;5.90;;;1.63;;
3995;SDS011;2012;49.794;9.722;2022-10-16T06:27:02;3.30;;;1.90;;
3995;SDS011;2012;49.794;9.722;2022-10-16T06:29:30;4.43;;;2.70;;
3995;SDS011;2012;49.794;9.722;2022-10-16T06:31:57;11.63;;;7.03;;
3995;SDS011;2012;49.794;9.722;2022-10-16T06:34:23;54.37;;;31.97;;
3995;SDS011;2012;49.794;9.722;2022-10-16T06:36:50;33.13;;;21.23;;
3995;SDS011;2012;49.794;9.722;2022-10-16T06:39:17;19.77;;;10.90;;
3995;SDS011;2012;49.794;9.722;2022-10-16T06:41:44;11.40;;;7.30;;
3995;SDS011;2012;49.794;9.722;2022-10-16T06:44:11;12.00;;;7.43;;
3995;SDS011;2012;49.794;9.722;2022-10-16T06:46:37;8.23;;;5.23;;
3995;SDS011;2012;49.794;9.722;2022-10-16T06:49:04;8.83;;;5.60;;
3995;SDS011;2012;49.794;9.722;2022-10-16T06:51:31;7.20;;;6.30;;
3995;SDS011;2012;49.794;9.722;2022-10-16T06:54:05;8.20;;;6.07;;
3995;SDS011;2012;49.794;9.722;2022-10-16T06:56:33;20.80;;;5.30;;
3995;SDS011;2012;49.794;9.722;2022-10-16T06:59:00;9.30;;;4.57;;
3995;SDS011;2012;49.794;9.722;2022-10-16T07:01:27;12.80;;;4.00;;
3995;SDS011;2012;49.794;9.722;2022-10-16T07:03:54;7.73;;;4.03;;
3995;SDS011;2012;49.794;9.722;2022-10-16T07:06:22;13.63;;;3.93;;
3995;SDS011;2012;49.794;9.722;2022-10-16T07:08:50;5.30;;;3.20;;
3995;SDS011;2012;49.794;9.722;2022-10-16T07:11:18;5.70;;;3.30;;
3995;SDS011;2012;49.794;9.722;2022-10-16T07:13:47;6.30;;;2.90;;
3995;SDS011;2012;49.794;9.722;2022-10-16T07:16:22;3.40;;;3.07;;
3995;SDS011;2012;49.794;9.722;2022-10-16T07:18:50;5.97;;;3.50;;
3995;SDS011;2012;49.794;9.722;2022-10-16T07:21:21;6.83;;;3.67;;
3995;SDS011;2012;49.794;9.722;2022-10-16T07:23:51;15.03;;;3.50;;
3995;SDS011;2012;49.794;9.722;2022-10-16T07:26:25;3.03;;;2.33;;
3995;SDS011;2012;49.794;9.722;2022-10-16T07:28:53;6.57;;;2.90;;
3995;SDS011;2012;49.794;9.722;2022-10-16T07:31:21;4.00;;;2.70;;
3995;SDS011;2012;49.794;9.722;2022-10-16T07:33:48;5.13;;;2.60;;
3995;SDS011;2012;49.794;9.722;2022-10-16T07:36:16;7.30;;;2.80;;
3995;SDS011;2012;49.794;9.722;2022-10-16T07:38:44;6.00;;;3.70;;
3995;SDS011;2012;49.794;9.722;2022-10-16T07:41:13;8.40;;;5.37;;
3995;SDS011;2012;49.794;9.722;2022-10-16T07:43:49;9.33;;;5.00;;
3995;SDS011;2012;49.794;9.722;2022-10-16T07:46:18;4.90;;;4.07;;
3995;SDS011;2012;49.794;9.722;2022-10-16T07:48:45;7.80;;;4.97;;
3995;SDS011;2012;49.794;9.722;2022-10-16T07:51:15;5.50;;;3.67;;
3995;SDS011;2012;49.794;9.722;2022-10-16T07:53:44;3.00;;;2.67;;
3995;SDS011;2012;49.794;9.722;2022-10-16T07:56:11;6.20;;;2.20;;
3995;SDS011;2012;49.794;9.722;2022-10-16T07:58:38;5.13;;;2.17;;
3995;SDS011;2012;49.794;9.722;2022-10-16T08:01:06;6.63;;;2.20;;
3995;SDS011;2012;49.794;9.722;2022-10-16T08:03:35;6.33;;;2.43;;
3995;SDS011;2012;49.794;9.722;2022-10-16T08:06:02;3.80;;;1.97;;
3995;SDS011;2012;49.794;9.722;2022-10-16T08:08:30;2.60;;;2.40;;
3995;SDS011;2012;49.794;9.722;2022-10-16T08:10:57;3.53;;;2.03;;
3995;SDS011;2012;49.794;9.722;2022-10-16T08:13:24;10.37;;;2.00;;
3995;SDS011;2012;49.794;9.722;2022-10-16T08:15:50;1.90;;;1.70;;
3995;SDS011;2012;49.794;9.722;2022-10-16T08:18:17;9.30;;;1.70;;
3995;SDS011;2012;49.794;9.722;2022-10-16T08:20:44;17.27;;;2.10;;
3995;SDS011;2012;49.794;9.722;2022-10-16T08:23:11;1.20;;;1.10;;
3995;SDS011;2012;49.794;9.722;2022-10-16T08:25:40;2.57;;;2.03;;
3995;SDS011;2012;49.794;9.722;2022-10-16T08:28:08;2.77;;;1.40;;
3995;SDS011;2012;49.794;9.722;2022-10-16T08:30:37;7.03;;;2.30;;
3995;SDS011;2012;49.794;9.722;2022-10-16T08:33:04;2.23;;;1.47;;
3995;SDS011;2012;49.794;9.722;2022-10-16T08:35:32;5.50;;;1.80;;
3995;SDS011;2012;49.794;9.722;2022-10-16T08:37:59;5.17;;;1.40;;
3995;SDS011;2012;49.794;9.722;2022-10-16T08:40:27;2.00;;;1.80;;
3995;SDS011;2012;49.794;9.722;2022-10-16T08:48:30;4.40;;;2.03;;
3995;SDS011;2012;49.794;9.722;2022-10-16T08:51:11;2.53;;;1.50;;
3995;SDS011;2012;49.794;9.722;2022-10-16T08:53:55;6.40;;;1.87;;
3995;SDS011;2012;49.794;9.722;2022-10-16T08:56:29;6.63;;;1.70;;
3995;SDS011;2012;49.794;9.722;2022-10-16T08:58:57;8.20;;;2.70;;
3995;SDS011;2012;49.794;9.722;2022-10-16T09:01:38;7.93;;;2.60;;
3995;SDS011;2012;49.794;9.722;2022-10-16T09:04:40;5.13;;;2.50;;
3995;SDS011;2012;49.794;9.722;2022-10-16T09:13:35;8.23;;;1.83;;
3995;SDS011;2012;49.794;9.722;2022-10-16T09:16:14;13.80;;;1.53;;
3995;SDS011;2012;49.794;9.722;2022-10-16T09:21:45;2.83;;;1.40;;
3995;SDS011;2012;49.794;9.722;2022-10-16T09:24:14;1.97;;;1.33;;
3995;SDS011;2012;49.794;9.722;2022-10-16T09:26:43;6.77;;;1.70;;
3995;SDS011;2012;49.794;9.722;2022-10-16T09:29:11;7.10;;;1.27;;
3995;SDS011;2012;49.794;9.722;2022-10-16T09:31:40;10.80;;;1.97;;
3995;SDS011;2012;49.794;9.722;2022-10-16T09:37:03;20.77;;;2.30;;
3995;SDS011;2012;49.794;9.722;2022-10-16T09:39:43;5.43;;;1.87;;
3995;SDS011;2012;49.794;9.722;2022-10-16T09:42:16;9.97;;;4.40;;
3995;SDS011;2012;49.794;9.722;2022-10-16T09:44:52;5.50;;;1.73;;
3995;SDS011;2012;49.794;9.722;2022-10-16T09:47:26;2.93;;;1.73;;
3995;SDS011;2012;49.794;9.722;2022-10-16T09:52:28;5.77;;;1.63;;
3995;SDS011;2012;49.794;9.722;2022-10-16T09:54:59;7.90;;;2.07;;
3995;SDS011;2012;49.794;9.722;2022-10-16T09:57:28;6.40;;;1.73;;
3995;SDS011;2012;49.794;9.722;2022-10-16T09:59:57;102.00;;;4.00;;
3995;SDS011;2012;49.794;9.722;2022-10-16T10:02:31;4.67;;;1.87;;
3995;SDS011;2012;49.794;9.722;2022-10-16T10:05:02;5.90;;;1.67;;
3995;SDS011;2012;49.794;9.722;2022-10-16T10:07:37;5.33;;;1.87;;
3995;SDS011;2012;49.794;9.722;2022-10-16T10:10:27;9.77;;;2.87;;
3995;SDS011;2012;49.794;9.722;2022-10-16T10:12:56;17.70;;;10.17;;
3995;SDS011;2012;49.794;9.722;2022-10-16T10:15:24;16.27;;;6.87;;
3995;SDS011;2012;49.794;9.722;2022-10-16T10:17:55;6.43;;;3.70;;
3995;SDS011;2012;49.794;9.722;2022-10-16T10:20:24;6.90;;;2.60;;
3995;SDS011;2012;49.794;9.722;2022-10-16T10:22:54;9.63;;;2.20;;
3995;SDS011;2012;49.794;9.722;2022-10-16T10:34:01;4.93;;;1.70;;
3995;SDS011;2012;49.794;9.722;2022-10-16T10:44:33;2.23;;;1.57;;
3995;SDS011;2012;49.794;9.722;2022-10-16T10:50:25;2.90;;;1.73;;
3995;SDS011;2012;49.794;9.722;2022-10-16T10:53:05;4.83;;;1.60;;
3995;SDS011;2012;49.794;9.722;2022-10-16T10:56:05;2.80;;;1.60;;
3995;SDS011;2012;49.794;9.722;2022-10-16T11:07:25;1.83;;;1.27;;
3995;SDS011;2012;49.794;9.722;2022-10-16T11:10:12;1.67;;;1.20;;
3995;SDS011;2012;49.794;9.722;2022-10-16T11:12:44;3.90;;;1.20;;
3995;SDS011;2012;49.794;9.722;2022-10-16T11:15:21;2.80;;;1.17;;
3995;SDS011;2012;49.794;9.722;2022-10-16T11:20:32;3.90;;;1.27;;
3995;SDS011;2012;49.794;9.722;2022-10-16T11:25:51;1.73;;;1.03;;
3995;SDS011;2012;49.794;9.722;2022-10-16T11:31:03;1.93;;;1.30;;
3995;SDS011;2012;49.794;9.722;2022-10-16T11:33:47;2.17;;;1.10;;
3995;SDS011;2012;49.794;9.722;2022-10-16T11:36:40;6.53;;;1.00;;
3995;SDS011;2012;49.794;9.722;2022-10-16T11:41:50;1.57;;;0.90;;
3995;SDS011;2012;49.794;9.722;2022-10-16T11:55:41;5.80;;;1.00;;
3995;SDS011;2012;49.794;9.722;2022-10-16T12:04:16;1.77;;;0.80;;
3995;SDS011;2012;49.794;9.722;2022-10-16T12:11:51;1.53;;;1.00;;
3995;SDS011;2012;49.794;9.722;2022-10-16T12:14:19;1.63;;;1.47;;
3995;SDS011;2012;49.794;9.722;2022-10-16T12:17:23;1.30;;;0.90;;
3995;SDS011;2012;49.794;9.722;2022-10-16T12:19:57;1.80;;;1.00;;
3995;SDS011;2012;49.794;9.722;2022-10-16T12:22:55;5.40;;;0.90;;
3995;SDS011;2012;49.794;9.722;2022-10-16T12:25:31;3.67;;;0.93;;
3995;SDS011;2012;49.794;9.722;2022-10-16T12:30:42;1.67;;;0.83;;
3995;SDS011;2012;49.794;9.722;2022-10-16T12:35:57;7.13;;;1.10;;
3995;SDS011;2012;49.794;9.722;2022-10-16T12:38:37;1.43;;;1.00;;
3995;SDS011;2012;49.794;9.722;2022-10-16T12:41:12;1.57;;;1.10;;
3995;SDS011;2012;49.794;9.722;2022-10-16T12:43:50;1.17;;;1.07;;
3995;SDS011;2012;49.794;9.722;2022-10-16T12:48:44;4.03;;;1.20;;
3995;SDS011;2012;49.794;9.722;2022-10-16T12:59:34;1.47;;;1.10;;
3995;SDS011;2012;49.794;9.722;2022-10-16T13:07:53;3.90;;;1.00;;
3995;SDS011;2012;49.794;9.722;2022-10-16T13:10:41;1.30;;;0.83;;
3995;SDS011;2012;49.794;9.722;2022-10-16T13:16:09;1.60;;;1.00;;
3995;SDS011;2012;49.794;9.722;2022-10-16T13:24:21;3.17;;;1.20;;
3995;SDS011;2012;49.794;9.722;2022-10-16T13:27:00;3.97;;;1.10;;
3995;SDS011;2012;49.794;9.722;2022-10-16T13:29:45;1.10;;;0.90;;
3995;SDS011;2012;49.794;9.722;2022-10-16T13:32:19;1.57;;;0.90;;
3995;SDS011;2012;49.794;9.722;2022-10-16T13:34:47;1.50;;;0.90;;
3995;SDS011;2012;49.794;9.722;2022-10-16T13:37:18;7.90;;;0.90;;
3995;SDS011;2012;49.794;9.722;2022-10-16T13:39:47;3.53;;;1.07;;
3995;SDS011;2012;49.794;9.722;2022-10-16T13:42:26;1.50;;;0.97;;
3995;SDS011;2012;49.794;9.722;2022-10-16T13:44:54;2.50;;;0.90;;
3995;SDS011;2012;49.794;9.722;2022-10-16T13:47:23;18.30;;;1.50;;
3995;SDS011;2012;49.794;9.722;2022-10-16T13:50:02;1.07;;;0.97;;
3995;SDS011;2012;49.794;9.722;2022-10-16T13:52:37;1.20;;;1.10;;
3995;SDS011;2012;49.794;9.722;2022-10-16T13:55:11;3.93;;;1.10;;
3995;SDS011;2012;49.794;9.722;2022-10-16T13:57:38;1.90;;;0.90;;
3995;SDS011;2012;49.794;9.722;2022-10-16T14:00:19;4.00;;;1.07;;
3995;SDS011;2012;49.794;9.722;2022-10-16T14:02:52;2.87;;;1.10;;
3995;SDS011;2012;49.794;9.722;2022-10-16T14:05:23;8.00;;;1.17;;
3995;SDS011;2012;49.794;9.722;2022-10-16T14:07:50;7.53;;;1.17;;
3995;SDS011;2012;49.794;9.722;2022-10-16T14:10:22;3.43;;;1.03;;
3995;SDS011;2012;49.794;9.722;2022-10-16T14:12:57;5.17;;;1.00;;
3995;SDS011;2012;49.794;9.722;2022-10-16T14:15:25;5.43;;;1.10;;
3995;SDS011;2012;49.794;9.722;2022-10-16T14:17:53;3.33;;;1.23;;
3995;SDS011;2012;49.794;9.722;2022-10-16T14:20:22;5.93;;;0.90;;
3995;SDS011;2012;49.794;9.722;2022-10-16T14:23:00;2.17;;;1.10;;
3995;SDS011;2012;49.794;9.722;2022-10-16T14:25:45;2.93;;;1.03;;
3995;SDS011;2012;49.794;9.722;2022-10-16T14:30:48;2.40;;;0.90;;
3995;SDS011;2012;49.794;9.722;2022-10-16T14:33:21;3.60;;;1.00;;
3995;SDS011;2012;49.794;9.722;2022-10-16T14:38:36;2.50;;;0.80;;
3995;SDS011;2012;49.794;9.722;2022-10-16T14:41:05;1.43;;;0.90;;
3995;SDS011;2012;49.794;9.722;2022-10-16T14:43:36;2.47;;;1.20;;
3995;SDS011;2012;49.794;9.722;2022-10-16T14:46:15;3.27;;;1.23;;
3995;SDS011;2012;49.794;9.722;2022-10-16T14:48:47;3.50;;;1.17;;
3995;SDS011;2012;49.794;9.722;2022-10-16T14:51:16;2.00;;;1.10;;
3995;SDS011;2012;49.794;9.722;2022-10-16T14:53:44;3.90;;;1.03;;
3995;SDS011;2012;49.794;9.722;2022-10-16T14:56:22;6.50;;;1.27;;
3995;SDS011;2012;49.794;9.722;2022-10-16T14:58:50;2.40;;;1.20;;
3995;SDS011;2012;49.794;9.722;2022-10-16T15:01:18;1.67;;;1.10;;
3995;SDS011;2012;49.794;9.722;2022-10-16T15:03:45;3.57;;;1.20;;
3995;SDS011;2012;49.794;9.722;2022-10-16T15:06:13;3.33;;;1.03;;
3995;SDS011;2012;49.794;9.722;2022-10-16T15:08:41;2.87;;;1.30;;
3995;SDS011;2012;49.794;9.722;2022-10-16T15:11:15;4.93;;;1.30;;
3995;SDS011;2012;49.794;9.722;2022-10-16T15:13:44;1.87;;;1.30;;
3995;SDS011;2012;49.794;9.722;2022-10-16T15:16:13;5.60;;;1.27;;
3995;SDS011;2012;49.794;9.722;2022-10-16T15:18:41;6.40;;;1.30;;
3995;SDS011;2012;49.794;9.722;2022-10-16T15:21:12;1.83;;;1.50;;
3995;SDS011;2012;49.794;9.722;2022-10-16T15:23:48;2.17;;;1.00;;
3995;SDS011;2012;49.794;9.722;2022-10-16T15:26:16;3.67;;;1.20;;
3995;SDS011;2012;49.794;9.722;2022-10-16T15:28:43;6.30;;;1.23;;
3995;SDS011;2012;49.794;9.722;2022-10-16T15:31:10;2.13;;;1.40;;
3995;SDS011;2012;49.794;9.722;2022-10-16T15:33:36;8.20;;;1.30;;
3995;SDS011;2012;49.794;9.722;2022-10-16T15:36:05;5.43;;;1.10;;
3995;SDS011;2012;49.794;9.722;2022-10-16T15:38:33;1.60;;;1.50;;
3995;SDS011;2012;49.794;9.722;2022-10-16T15:41:00;7.43;;;1.40;;
3995;SDS011;2012;49.794;9.722;2022-10-16T15:43:26;5.20;;;1.47;;
3995;SDS011;2012;49.794;9.722;2022-10-16T15:46:02;3.23;;;1.20;;
3995;SDS011;2012;49.794;9.722;2022-10-16T15:48:32;5.33;;;1.30;;
3995;SDS011;2012;49.794;9.722;2022-10-16T15:50:59;4.83;;;1.40;;
3995;SDS011;2012;49.794;9.722;2022-10-16T15:53:30;6.10;;;1.80;;
3995;SDS011;2012;49.794;9.722;2022-10-16T15:55:57;3.77;;;2.50;;
3995;SDS011;2012;49.794;9.722;2022-10-16T15:58:23;11.10;;;1.80;;
3995;SDS011;2012;49.794;9.722;2022-10-16T16:00:57;5.17;;;2.13;;
3995;SDS011;2012;49.794;9.722;2022-10-16T16:03:27;6.37;;;1.80;;
3995;SDS011;2012;49.794;9.722;2022-10-16T16:05:54;6.77;;;1.77;;
3995;SDS011;2012;49.794;9.722;2022-10-16T16:08:21;16.80;;;1.40;;
3995;SDS011;2012;49.794;9.722;2022-10-16T16:11:01;7.57;;;1.60;;
3995;SDS011;2012;49.794;9.722;2022-10-16T16:13:30;8.10;;;1.70;;
3995;SDS011;2012;49.794;9.722;2022-10-16T16:15:58;2.80;;;1.50;;
3995;SDS011;2012;49.794;9.722;2022-10-16T16:18:24;6.37;;;1.33;;
3995;SDS011;2012;49.794;9.722;2022-10-16T16:20:51;4.93;;;1.60;;
3995;SDS011;2012;49.794;9.722;2022-10-16T16:23:19;6.67;;;1.50;;
3995;SDS011;2012;49.794;9.722;2022-10-16T16:26:01;2.07;;;1.60;;
3995;SDS011;2012;49.794;9.722;2022-10-16T16:28:32;1.73;;;1.20;;
3995;SDS011;2012;49.794;9.722;2022-10-16T16:30:59;6.73;;;1.40;;
3995;SDS011;2012;49.794;9.722;2022-10-16T16:33:26;3.03;;;1.43;;
3995;SDS011;2012;49.794;9.722;2022-10-16T16:35:56;3.47;;;1.57;;
3995;SDS011;2012;49.794;9.722;2022-10-16T16:38:24;6.83;;;1.60;;
3995;SDS011;2012;49.794;9.722;2022-10-16T16:40:52;13.97;;;1.70;;
3995;SDS011;2012;49.794;9.722;2022-10-16T16:43:25;9.30;;;1.50;;
3995;SDS011;2012;49.794;9.722;2022-10-16T16:45:53;19.03;;;1.53;;
3995;SDS011;2012;49.794;9.722;2022-10-16T16:48:20;4.80;;;1.73;;
3995;SDS011;2012;49.794;9.722;2022-10-16T16:50:47;2.83;;;1.50;;
3995;SDS011;2012;49.794;9.722;2022-10-16T16:53:14;4.03;;;1.60;;
3995;SDS011;2012;49.794;9.722;2022-10-16T16:55:41;3.93;;;1.83;;
3995;SDS011;2012;49.794;9.722;2022-10-16T16:58:08;6.33;;;1.70;;
3995;SDS011;2012;49.794;9.722;2022-10-16T17:00:35;3.37;;;1.60;;
3995;SDS011;2012;49.794;9.722;2022-10-16T17:03:02;4.20;;;1.53;;
3995;SDS011;2012;49.794;9.722;2022-10-16T17:05:29;4.70;;;1.50;;
3995;SDS011;2012;49.794;9.722;2022-10-16T17:07:55;3.83;;;1.37;;
3995;SDS011;2012;49.794;9.722;2022-10-16T17:10:22;6.03;;;1.50;;
3995;SDS011;2012;49.794;9.722;2022-10-16T17:12:49;6.80;;;1.60;;
3995;SDS011;2012;49.794;9.722;2022-10-16T17:15:16;10.00;;;1.30;;
3995;SDS011;2012;49.794;9.722;2022-10-16T17:17:43;10.30;;;2.77;;
3995;SDS011;2012;49.794;9.722;2022-10-16T17:20:10;5.80;;;1.43;;
3995;SDS011;2012;49.794;9.722;2022-10-16T17:22:37;6.63;;;1.27;;
3995;SDS011;2012;49.794;9.722;2022-10-16T17:25:03;1.30;;;1.20;;
3995;SDS011;2012;49.794;9.722;2022-10-16T17:27:33;5.13;;;1.30;;
3995;SDS011;2012;49.794;9.722;2022-10-16T17:30:01;13.57;;;2.00;;
3995;SDS011;2012;49.794;9.722;2022-10-16T17:32:30;6.10;;;1.33;;
3995;SDS011;2012;49.794;9.722;2022-10-16T17:34:56;18.00;;;1.67;;
3995;SDS011;2012;49.794;9.722;2022-10-16T17:37:23;7.23;;;1.70;;
3995;SDS011;2012;49.794;9.722;2022-10-16T17:39:50;6.20;;;1.70;;
3995;SDS011;2012;49.794;9.722;2022-10-16T17:42:17;14.63;;;1.73;;
3995;SDS011;2012;49.794;9.722;2022-10-16T17:44:44;10.67;;;2.60;;
3995;SDS011;2012;49.794;9.722;2022-10-16T17:47:11;18.87;;;1.80;;
3995;SDS011;2012;49.794;9.722;2022-10-16T17:49:37;3.37;;;1.80;;